sensor_id;sensor_type;location;lat;lon;timestamp;P1;durP1;ratioP1;P2;durP2;ratioP2
52468;SDS011;38381;53.688;10.776;2024-01-16T00:04:46;3.92;;;3.63;;
52468;SDS011;38381;53.688;10.776;2024-01-16T00:09:46;3.17;;;2.88;;
52468;SDS011;38381;53.688;10.776;2024-01-16T00:14:47;3.45;;;3.10;;
52468;SDS011;38381;53.688;10.776;2024-01-16T00:19:47;5.38;;;3.20;;
52468;SDS011;38381;53.688;10.776;2024-01-16T00:24:47;6.03;;;4.78;;
52468;SDS011;38381;53.688;10.776;2024-01-16T00:29:48;7.10;;;5.50;;
52468;SDS011;38381;53.688;10.776;2024-01-16T00:34:48;5.13;;;4.60;;
52468;SDS011;38381;53.688;10.776;2024-01-16T00:39:48;4.53;;;4.13;;
52468;SDS011;38381;53.688;10.776;2024-01-16T00:44:49;5.35;;;4.95;;
52468;SDS011;38381;53.688;10.776;2024-01-16T00:49:49;5.00;;;4.50;;
52468;SDS011;38381;53.688;10.776;2024-01-16T00:54:50;5.43;;;4.93;;
52468;SDS011;38381;53.688;10.776;2024-01-16T00:59:50;6.43;;;5.28;;
52468;SDS011;38381;53.688;10.776;2024-01-16T01:04:51;6.28;;;5.40;;
52468;SDS011;38381;53.688;10.776;2024-01-16T01:09:51;6.65;;;5.30;;
52468;SDS011;38381;53.688;10.776;2024-01-16T01:14:51;5.88;;;5.15;;
52468;SDS011;38381;53.688;10.776;2024-01-16T01:19:52;5.15;;;4.75;;
52468;SDS011;38381;53.688;10.776;2024-01-16T01:24:52;6.13;;;4.93;;
52468;SDS011;38381;53.688;10.776;2024-01-16T01:29:53;4.85;;;4.45;;
52468;SDS011;38381;53.688;10.776;2024-01-16T01:34:53;6.38;;;5.22;;
52468;SDS011;38381;53.688;10.776;2024-01-16T01:39:53;7.32;;;4.55;;
52468;SDS011;38381;53.688;10.776;2024-01-16T01:44:54;5.40;;;4.90;;
52468;SDS011;38381;53.688;10.776;2024-01-16T01:49:54;4.72;;;4.13;;
52468;SDS011;38381;53.688;10.776;2024-01-16T01:54:55;6.22;;;4.97;;
52468;SDS011;38381;53.688;10.776;2024-01-16T01:59:55;5.55;;;5.05;;
52468;SDS011;38381;53.688;10.776;2024-01-16T02:04:56;6.15;;;4.32;;
52468;SDS011;38381;53.688;10.776;2024-01-16T02:09:56;5.22;;;4.82;;
52468;SDS011;38381;53.688;10.776;2024-01-16T02:14:57;6.53;;;5.03;;
52468;SDS011;38381;53.688;10.776;2024-01-16T02:19:57;5.75;;;5.10;;
52468;SDS011;38381;53.688;10.776;2024-01-16T02:24:58;6.03;;;5.00;;
52468;SDS011;38381;53.688;10.776;2024-01-16T02:29:58;5.20;;;4.70;;
52468;SDS011;38381;53.688;10.776;2024-01-16T02:34:58;7.07;;;5.53;;
52468;SDS011;38381;53.688;10.776;2024-01-16T02:39:59;6.20;;;5.55;;
52468;SDS011;38381;53.688;10.776;2024-01-16T02:45:00;5.57;;;5.07;;
52468;SDS011;38381;53.688;10.776;2024-01-16T02:50:00;8.40;;;5.53;;
52468;SDS011;38381;53.688;10.776;2024-01-16T02:55:01;6.00;;;5.45;;
52468;SDS011;38381;53.688;10.776;2024-01-16T03:00:02;6.50;;;5.90;;
52468;SDS011;38381;53.688;10.776;2024-01-16T03:05:03;5.40;;;4.90;;
52468;SDS011;38381;53.688;10.776;2024-01-16T03:10:05;6.20;;;5.60;;
52468;SDS011;38381;53.688;10.776;2024-01-16T03:15:06;5.30;;;4.90;;
52468;SDS011;38381;53.688;10.776;2024-01-16T03:20:07;6.45;;;5.00;;
52468;SDS011;38381;53.688;10.776;2024-01-16T03:25:08;6.90;;;6.20;;
52468;SDS011;38381;53.688;10.776;2024-01-16T03:30:09;5.68;;;5.18;;
52468;SDS011;38381;53.688;10.776;2024-01-16T03:35:10;5.45;;;4.95;;
52468;SDS011;38381;53.688;10.776;2024-01-16T03:40:10;7.15;;;5.70;;
52468;SDS011;38381;53.688;10.776;2024-01-16T03:45:12;5.43;;;4.93;;
52468;SDS011;38381;53.688;10.776;2024-01-16T03:50:13;6.55;;;5.20;;
52468;SDS011;38381;53.688;10.776;2024-01-16T03:55:13;7.13;;;5.72;;
52468;SDS011;38381;53.688;10.776;2024-01-16T04:00:14;5.78;;;5.28;;
52468;SDS011;38381;53.688;10.776;2024-01-16T04:05:14;7.45;;;6.07;;
52468;SDS011;38381;53.688;10.776;2024-01-16T04:10:15;6.28;;;5.68;;
52468;SDS011;38381;53.688;10.776;2024-01-16T04:15:15;6.72;;;5.28;;
52468;SDS011;38381;53.688;10.776;2024-01-16T04:20:16;8.43;;;6.80;;
52468;SDS011;38381;53.688;10.776;2024-01-16T04:25:16;6.80;;;6.15;;
52468;SDS011;38381;53.688;10.776;2024-01-16T04:30:17;8.13;;;6.38;;
52468;SDS011;38381;53.688;10.776;2024-01-16T04:35:20;8.57;;;6.55;;
52468;SDS011;38381;53.688;10.776;2024-01-16T04:40:22;8.00;;;7.15;;
52468;SDS011;38381;53.688;10.776;2024-01-16T04:45:22;6.67;;;5.93;;
52468;SDS011;38381;53.688;10.776;2024-01-16T04:50:23;9.70;;;6.18;;
52468;SDS011;38381;53.688;10.776;2024-01-16T04:55:31;7.15;;;6.35;;
52468;SDS011;38381;53.688;10.776;2024-01-16T05:00:31;8.93;;;6.53;;
52468;SDS011;38381;53.688;10.776;2024-01-16T05:05:32;10.25;;;6.90;;
52468;SDS011;38381;53.688;10.776;2024-01-16T05:10:32;6.65;;;6.00;;
52468;SDS011;38381;53.688;10.776;2024-01-16T05:15:33;8.70;;;6.05;;
52468;SDS011;38381;53.688;10.776;2024-01-16T05:20:33;6.47;;;5.53;;
52468;SDS011;38381;53.688;10.776;2024-01-16T05:25:33;10.00;;;6.53;;
52468;SDS011;38381;53.688;10.776;2024-01-16T05:30:34;8.20;;;6.85;;
52468;SDS011;38381;53.688;10.776;2024-01-16T05:35:34;10.57;;;9.20;;
52468;SDS011;38381;53.688;10.776;2024-01-16T05:40:34;5.80;;;5.30;;
52468;SDS011;38381;53.688;10.776;2024-01-16T05:45:35;8.37;;;6.13;;
52468;SDS011;38381;53.688;10.776;2024-01-16T05:50:36;8.35;;;6.38;;
52468;SDS011;38381;53.688;10.776;2024-01-16T05:55:37;9.68;;;7.03;;
52468;SDS011;38381;53.688;10.776;2024-01-16T06:00:37;10.30;;;7.70;;
52468;SDS011;38381;53.688;10.776;2024-01-16T06:05:39;9.90;;;7.47;;
52468;SDS011;38381;53.688;10.776;2024-01-16T06:10:40;8.68;;;8.02;;
52468;SDS011;38381;53.688;10.776;2024-01-16T06:15:40;9.40;;;7.80;;
52468;SDS011;38381;53.688;10.776;2024-01-16T06:20:40;10.02;;;7.95;;
52468;SDS011;38381;53.688;10.776;2024-01-16T06:25:41;10.45;;;6.97;;
52468;SDS011;38381;53.688;10.776;2024-01-16T06:30:41;12.30;;;7.85;;
52468;SDS011;38381;53.688;10.776;2024-01-16T06:35:42;12.57;;;8.77;;
52468;SDS011;38381;53.688;10.776;2024-01-16T06:40:42;10.77;;;8.02;;
52468;SDS011;38381;53.688;10.776;2024-01-16T06:45:43;12.60;;;8.48;;
52468;SDS011;38381;53.688;10.776;2024-01-16T06:50:43;12.73;;;8.57;;
52468;SDS011;38381;53.688;10.776;2024-01-16T06:55:43;11.02;;;8.75;;
52468;SDS011;38381;53.688;10.776;2024-01-16T07:00:44;11.90;;;10.23;;
52468;SDS011;38381;53.688;10.776;2024-01-16T07:05:46;12.32;;;10.73;;
52468;SDS011;38381;53.688;10.776;2024-01-16T07:10:46;15.90;;;11.30;;
52468;SDS011;38381;53.688;10.776;2024-01-16T07:15:46;14.88;;;10.25;;
52468;SDS011;38381;53.688;10.776;2024-01-16T07:20:47;13.82;;;11.68;;
52468;SDS011;38381;53.688;10.776;2024-01-16T07:25:47;12.98;;;9.88;;
52468;SDS011;38381;53.688;10.776;2024-01-16T07:30:48;15.45;;;10.60;;
52468;SDS011;38381;53.688;10.776;2024-01-16T07:35:48;13.33;;;11.30;;
52468;SDS011;38381;53.688;10.776;2024-01-16T07:40:49;15.57;;;10.90;;
52468;SDS011;38381;53.688;10.776;2024-01-16T07:45:49;13.73;;;11.32;;
52468;SDS011;38381;53.688;10.776;2024-01-16T07:50:50;14.77;;;10.63;;
52468;SDS011;38381;53.688;10.776;2024-01-16T07:55:50;14.23;;;9.65;;
52468;SDS011;38381;53.688;10.776;2024-01-16T08:00:51;10.07;;;7.97;;
52468;SDS011;38381;53.688;10.776;2024-01-16T08:05:51;13.65;;;9.43;;
52468;SDS011;38381;53.688;10.776;2024-01-16T08:10:51;10.90;;;8.13;;
52468;SDS011;38381;53.688;10.776;2024-01-16T08:15:52;9.60;;;7.05;;
52468;SDS011;38381;53.688;10.776;2024-01-16T08:20:52;12.23;;;7.95;;
52468;SDS011;38381;53.688;10.776;2024-01-16T08:25:52;10.40;;;7.25;;
52468;SDS011;38381;53.688;10.776;2024-01-16T08:30:53;7.70;;;6.95;;
52468;SDS011;38381;53.688;10.776;2024-01-16T08:35:53;6.85;;;5.65;;
52468;SDS011;38381;53.688;10.776;2024-01-16T08:40:54;7.50;;;6.38;;
52468;SDS011;38381;53.688;10.776;2024-01-16T08:45:54;6.63;;;4.97;;
52468;SDS011;38381;53.688;10.776;2024-01-16T08:50:54;9.65;;;5.95;;
52468;SDS011;38381;53.688;10.776;2024-01-16T08:55:55;7.55;;;5.90;;
52468;SDS011;38381;53.688;10.776;2024-01-16T09:00:55;9.23;;;6.70;;
52468;SDS011;38381;53.688;10.776;2024-01-16T09:05:56;8.40;;;6.32;;
52468;SDS011;38381;53.688;10.776;2024-01-16T09:10:56;9.67;;;7.33;;
52468;SDS011;38381;53.688;10.776;2024-01-16T09:15:57;10.10;;;7.05;;
52468;SDS011;38381;53.688;10.776;2024-01-16T09:20:57;8.73;;;7.57;;
52468;SDS011;38381;53.688;10.776;2024-01-16T09:25:58;9.07;;;7.25;;
52468;SDS011;38381;53.688;10.776;2024-01-16T09:30:58;11.95;;;8.48;;
52468;SDS011;38381;53.688;10.776;2024-01-16T09:35:58;10.00;;;9.00;;
52468;SDS011;38381;53.688;10.776;2024-01-16T09:40:59;13.70;;;8.65;;
52468;SDS011;38381;53.688;10.776;2024-01-16T09:46:00;11.63;;;8.98;;
52468;SDS011;38381;53.688;10.776;2024-01-16T09:51:01;15.82;;;10.38;;
52468;SDS011;38381;53.688;10.776;2024-01-16T09:56:03;11.27;;;9.18;;
52468;SDS011;38381;53.688;10.776;2024-01-16T10:01:06;11.32;;;9.27;;
52468;SDS011;38381;53.688;10.776;2024-01-16T10:06:07;10.90;;;8.63;;
52468;SDS011;38381;53.688;10.776;2024-01-16T10:11:08;10.75;;;8.93;;
52468;SDS011;38381;53.688;10.776;2024-01-16T10:16:08;11.30;;;9.43;;
52468;SDS011;38381;53.688;10.776;2024-01-16T10:21:19;10.20;;;9.05;;
52468;SDS011;38381;53.688;10.776;2024-01-16T10:26:29;12.02;;;9.00;;
52468;SDS011;38381;53.688;10.776;2024-01-16T10:31:29;9.90;;;8.60;;
52468;SDS011;38381;53.688;10.776;2024-01-16T10:36:31;12.95;;;8.50;;
52468;SDS011;38381;53.688;10.776;2024-01-16T10:41:31;11.85;;;9.20;;
52468;SDS011;38381;53.688;10.776;2024-01-16T10:46:32;14.05;;;8.55;;
52468;SDS011;38381;53.688;10.776;2024-01-16T10:51:33;12.75;;;8.30;;
52468;SDS011;38381;53.688;10.776;2024-01-16T10:56:34;9.57;;;8.23;;
52468;SDS011;38381;53.688;10.776;2024-01-16T11:01:35;11.40;;;9.07;;
52468;SDS011;38381;53.688;10.776;2024-01-16T11:06:36;10.27;;;9.05;;
52468;SDS011;38381;53.688;10.776;2024-01-16T11:11:36;8.73;;;7.57;;
52468;SDS011;38381;53.688;10.776;2024-01-16T11:16:38;11.53;;;8.07;;
52468;SDS011;38381;53.688;10.776;2024-01-16T11:21:39;9.57;;;7.70;;
52468;SDS011;38381;53.688;10.776;2024-01-16T11:26:41;8.52;;;6.85;;
52468;SDS011;38381;53.688;10.776;2024-01-16T11:31:41;7.47;;;5.80;;
52468;SDS011;38381;53.688;10.776;2024-01-16T11:36:51;8.25;;;5.05;;
52468;SDS011;38381;53.688;10.776;2024-01-16T11:41:55;4.68;;;4.28;;
52468;SDS011;38381;53.688;10.776;2024-01-16T11:46:59;6.30;;;4.50;;
52468;SDS011;38381;53.688;10.776;2024-01-16T11:52:00;6.38;;;5.05;;
52468;SDS011;38381;53.688;10.776;2024-01-16T12:02:01;4.93;;;3.87;;
52468;SDS011;38381;53.688;10.776;2024-01-16T12:07:04;6.90;;;4.63;;
52468;SDS011;38381;53.688;10.776;2024-01-16T12:12:05;6.47;;;4.70;;
52468;SDS011;38381;53.688;10.776;2024-01-16T12:17:09;5.18;;;4.68;;
52468;SDS011;38381;53.688;10.776;2024-01-16T12:22:13;11.05;;;4.72;;
52468;SDS011;38381;53.688;10.776;2024-01-16T12:27:14;5.97;;;4.78;;
52468;SDS011;38381;53.688;10.776;2024-01-16T12:32:15;6.13;;;4.97;;
52468;SDS011;38381;53.688;10.776;2024-01-16T12:37:16;4.72;;;4.25;;
52468;SDS011;38381;53.688;10.776;2024-01-16T12:42:17;7.75;;;4.03;;
52468;SDS011;38381;53.688;10.776;2024-01-16T12:47:18;4.28;;;3.60;;
52468;SDS011;38381;53.688;10.776;2024-01-16T12:52:20;9.30;;;5.18;;
52468;SDS011;38381;53.688;10.776;2024-01-16T12:57:21;6.30;;;4.22;;
52468;SDS011;38381;53.688;10.776;2024-01-16T13:02:22;4.28;;;3.42;;
52468;SDS011;38381;53.688;10.776;2024-01-16T13:12:26;4.85;;;4.32;;
52468;SDS011;38381;53.688;10.776;2024-01-16T13:22:29;3.60;;;2.78;;
52468;SDS011;38381;53.688;10.776;2024-01-16T13:27:29;4.90;;;3.47;;
52468;SDS011;38381;53.688;10.776;2024-01-16T13:32:30;4.07;;;3.25;;
52468;SDS011;38381;53.688;10.776;2024-01-16T13:37:30;5.90;;;3.88;;
52468;SDS011;38381;53.688;10.776;2024-01-16T13:42:30;4.68;;;3.22;;
52468;SDS011;38381;53.688;10.776;2024-01-16T13:47:32;7.95;;;4.63;;
52468;SDS011;38381;53.688;10.776;2024-01-16T13:52:34;4.82;;;3.45;;
52468;SDS011;38381;53.688;10.776;2024-01-16T13:57:35;4.10;;;3.15;;
52468;SDS011;38381;53.688;10.776;2024-01-16T14:02:36;6.30;;;3.65;;
52468;SDS011;38381;53.688;10.776;2024-01-16T14:07:44;4.95;;;3.80;;
52468;SDS011;38381;53.688;10.776;2024-01-16T14:12:50;9.68;;;5.78;;
52468;SDS011;38381;53.688;10.776;2024-01-16T14:17:52;4.85;;;4.38;;
52468;SDS011;38381;53.688;10.776;2024-01-16T14:22:54;9.00;;;4.28;;
52468;SDS011;38381;53.688;10.776;2024-01-16T14:27:56;7.75;;;4.38;;
52468;SDS011;38381;53.688;10.776;2024-01-16T14:32:58;8.95;;;5.50;;
52468;SDS011;38381;53.688;10.776;2024-01-16T14:37:58;5.65;;;4.72;;
52468;SDS011;38381;53.688;10.776;2024-01-16T14:42:59;6.97;;;5.97;;
52468;SDS011;38381;53.688;10.776;2024-01-16T14:48:00;8.05;;;5.93;;
52468;SDS011;38381;53.688;10.776;2024-01-16T14:53:00;6.57;;;5.68;;
52468;SDS011;38381;53.688;10.776;2024-01-16T15:03:03;10.65;;;5.20;;
52468;SDS011;38381;53.688;10.776;2024-01-16T15:08:05;9.20;;;5.60;;
52468;SDS011;38381;53.688;10.776;2024-01-16T15:13:06;6.55;;;4.90;;
52468;SDS011;38381;53.688;10.776;2024-01-16T15:18:06;6.25;;;5.57;;
52468;SDS011;38381;53.688;10.776;2024-01-16T15:23:07;6.05;;;5.55;;
52468;SDS011;38381;53.688;10.776;2024-01-16T15:28:07;6.65;;;6.05;;
52468;SDS011;38381;53.688;10.776;2024-01-16T15:33:08;9.90;;;6.97;;
52468;SDS011;38381;53.688;10.776;2024-01-16T15:38:09;8.70;;;7.10;;
52468;SDS011;38381;53.688;10.776;2024-01-16T15:43:10;14.77;;;12.00;;
52468;SDS011;38381;53.688;10.776;2024-01-16T15:48:11;11.00;;;9.90;;
52468;SDS011;38381;53.688;10.776;2024-01-16T15:53:12;17.02;;;9.93;;
52468;SDS011;38381;53.688;10.776;2024-01-16T15:58:15;11.15;;;9.95;;
52468;SDS011;38381;53.688;10.776;2024-01-16T16:03:16;10.95;;;9.88;;
52468;SDS011;38381;53.688;10.776;2024-01-16T16:08:18;10.65;;;9.55;;
52468;SDS011;38381;53.688;10.776;2024-01-16T16:13:19;11.15;;;10.05;;
52468;SDS011;38381;53.688;10.776;2024-01-16T16:18:21;12.38;;;10.18;;
52468;SDS011;38381;53.688;10.776;2024-01-16T16:23:23;12.82;;;10.52;;
52468;SDS011;38381;53.688;10.776;2024-01-16T16:28:23;11.70;;;9.65;;
52468;SDS011;38381;53.688;10.776;2024-01-16T16:33:23;11.25;;;9.35;;
52468;SDS011;38381;53.688;10.776;2024-01-16T16:38:24;13.18;;;10.35;;
52468;SDS011;38381;53.688;10.776;2024-01-16T16:43:25;12.05;;;9.60;;
52468;SDS011;38381;53.688;10.776;2024-01-16T16:48:25;14.35;;;10.18;;
52468;SDS011;38381;53.688;10.776;2024-01-16T16:53:26;9.05;;;7.35;;
52468;SDS011;38381;53.688;10.776;2024-01-16T16:58:26;11.75;;;8.68;;
52468;SDS011;38381;53.688;10.776;2024-01-16T17:03:27;11.50;;;8.15;;
52468;SDS011;38381;53.688;10.776;2024-01-16T17:08:27;12.02;;;7.20;;
52468;SDS011;38381;53.688;10.776;2024-01-16T17:13:27;8.73;;;7.25;;
52468;SDS011;38381;53.688;10.776;2024-01-16T17:18:31;13.20;;;7.90;;
52468;SDS011;38381;53.688;10.776;2024-01-16T17:23:35;9.00;;;7.20;;
52468;SDS011;38381;53.688;10.776;2024-01-16T17:28:36;9.02;;;7.55;;
52468;SDS011;38381;53.688;10.776;2024-01-16T17:33:36;13.75;;;6.70;;
52468;SDS011;38381;53.688;10.776;2024-01-16T17:38:37;10.25;;;8.02;;
52468;SDS011;38381;53.688;10.776;2024-01-16T17:43:37;11.15;;;8.38;;
52468;SDS011;38381;53.688;10.776;2024-01-16T17:48:38;9.95;;;8.32;;
52468;SDS011;38381;53.688;10.776;2024-01-16T17:53:40;9.93;;;6.75;;
52468;SDS011;38381;53.688;10.776;2024-01-16T17:58:43;9.85;;;7.97;;
52468;SDS011;38381;53.688;10.776;2024-01-16T18:03:44;10.85;;;7.95;;
52468;SDS011;38381;53.688;10.776;2024-01-16T18:08:46;12.38;;;8.15;;
52468;SDS011;38381;53.688;10.776;2024-01-16T18:13:48;12.23;;;10.25;;
52468;SDS011;38381;53.688;10.776;2024-01-16T18:18:49;10.25;;;9.15;;
52468;SDS011;38381;53.688;10.776;2024-01-16T18:23:51;12.73;;;10.05;;
52468;SDS011;38381;53.688;10.776;2024-01-16T18:28:52;15.50;;;9.95;;
52468;SDS011;38381;53.688;10.776;2024-01-16T18:33:54;10.55;;;8.68;;
52468;SDS011;38381;53.688;10.776;2024-01-16T18:38:54;13.23;;;9.48;;
52468;SDS011;38381;53.688;10.776;2024-01-16T18:43:55;13.07;;;10.85;;
52468;SDS011;38381;53.688;10.776;2024-01-16T18:48:55;16.27;;;10.65;;
52468;SDS011;38381;53.688;10.776;2024-01-16T18:53:56;14.80;;;10.32;;
52468;SDS011;38381;53.688;10.776;2024-01-16T18:58:56;11.77;;;9.63;;
52468;SDS011;38381;53.688;10.776;2024-01-16T19:03:57;13.13;;;10.30;;
52468;SDS011;38381;53.688;10.776;2024-01-16T19:08:58;12.10;;;10.32;;
52468;SDS011;38381;53.688;10.776;2024-01-16T19:13:59;11.38;;;10.25;;
52468;SDS011;38381;53.688;10.776;2024-01-16T19:18:59;15.23;;;10.52;;
52468;SDS011;38381;53.688;10.776;2024-01-16T19:24:00;12.77;;;11.05;;
52468;SDS011;38381;53.688;10.776;2024-01-16T19:29:00;15.27;;;11.82;;
52468;SDS011;38381;53.688;10.776;2024-01-16T19:34:01;16.45;;;12.73;;
52468;SDS011;38381;53.688;10.776;2024-01-16T19:39:02;13.10;;;11.63;;
52468;SDS011;38381;53.688;10.776;2024-01-16T19:44:03;14.07;;;12.40;;
52468;SDS011;38381;53.688;10.776;2024-01-16T19:49:03;17.02;;;13.05;;
52468;SDS011;38381;53.688;10.776;2024-01-16T19:54:08;14.88;;;12.88;;
52468;SDS011;38381;53.688;10.776;2024-01-16T19:59:08;15.75;;;13.95;;
52468;SDS011;38381;53.688;10.776;2024-01-16T20:04:10;18.15;;;14.90;;
52468;SDS011;38381;53.688;10.776;2024-01-16T20:09:10;14.57;;;12.98;;
52468;SDS011;38381;53.688;10.776;2024-01-16T20:14:11;15.80;;;14.23;;
52468;SDS011;38381;53.688;10.776;2024-01-16T20:19:12;18.00;;;14.33;;
52468;SDS011;38381;53.688;10.776;2024-01-16T20:24:13;14.73;;;12.85;;
52468;SDS011;38381;53.688;10.776;2024-01-16T20:29:14;13.63;;;12.43;;
52468;SDS011;38381;53.688;10.776;2024-01-16T20:34:14;14.40;;;13.00;;
52468;SDS011;38381;53.688;10.776;2024-01-16T20:39:14;14.30;;;12.38;;
52468;SDS011;38381;53.688;10.776;2024-01-16T20:44:15;14.35;;;12.30;;
52468;SDS011;38381;53.688;10.776;2024-01-16T20:49:20;15.93;;;13.43;;
52468;SDS011;38381;53.688;10.776;2024-01-16T20:54:21;14.32;;;12.82;;
52468;SDS011;38381;53.688;10.776;2024-01-16T20:59:21;13.60;;;12.35;;
52468;SDS011;38381;53.688;10.776;2024-01-16T21:04:24;15.57;;;10.98;;
52468;SDS011;38381;53.688;10.776;2024-01-16T21:09:25;13.38;;;11.10;;
52468;SDS011;38381;53.688;10.776;2024-01-16T21:14:26;13.63;;;12.23;;
52468;SDS011;38381;53.688;10.776;2024-01-16T21:19:26;13.25;;;11.77;;
52468;SDS011;38381;53.688;10.776;2024-01-16T21:24:27;13.95;;;11.90;;
52468;SDS011;38381;53.688;10.776;2024-01-16T21:29:28;15.27;;;11.93;;
52468;SDS011;38381;53.688;10.776;2024-01-16T21:34:29;14.07;;;12.05;;
52468;SDS011;38381;53.688;10.776;2024-01-16T21:39:29;12.00;;;10.88;;
52468;SDS011;38381;53.688;10.776;2024-01-16T21:44:31;12.63;;;11.40;;
52468;SDS011;38381;53.688;10.776;2024-01-16T21:49:31;11.03;;;9.93;;
52468;SDS011;38381;53.688;10.776;2024-01-16T21:54:32;12.43;;;11.13;;
52468;SDS011;38381;53.688;10.776;2024-01-16T21:59:33;14.93;;;11.57;;
52468;SDS011;38381;53.688;10.776;2024-01-16T22:04:33;11.93;;;10.65;;
52468;SDS011;38381;53.688;10.776;2024-01-16T22:09:37;14.50;;;12.30;;
52468;SDS011;38381;53.688;10.776;2024-01-16T22:14:37;16.45;;;12.35;;
52468;SDS011;38381;53.688;10.776;2024-01-16T22:19:38;15.45;;;13.05;;
52468;SDS011;38381;53.688;10.776;2024-01-16T22:24:38;13.20;;;12.00;;
52468;SDS011;38381;53.688;10.776;2024-01-16T22:29:38;13.38;;;11.48;;
52468;SDS011;38381;53.688;10.776;2024-01-16T22:34:39;13.82;;;12.20;;
52468;SDS011;38381;53.688;10.776;2024-01-16T22:39:42;16.85;;;12.98;;
52468;SDS011;38381;53.688;10.776;2024-01-16T22:44:44;19.00;;;13.65;;
52468;SDS011;38381;53.688;10.776;2024-01-16T22:49:44;15.70;;;13.87;;
52468;SDS011;38381;53.688;10.776;2024-01-16T22:54:45;17.08;;;13.30;;
52468;SDS011;38381;53.688;10.776;2024-01-16T22:59:45;17.23;;;15.45;;
52468;SDS011;38381;53.688;10.776;2024-01-16T23:04:45;16.30;;;14.70;;
52468;SDS011;38381;53.688;10.776;2024-01-16T23:09:46;17.25;;;15.15;;
52468;SDS011;38381;53.688;10.776;2024-01-16T23:14:47;16.60;;;13.73;;
52468;SDS011;38381;53.688;10.776;2024-01-16T23:19:47;20.45;;;15.05;;
52468;SDS011;38381;53.688;10.776;2024-01-16T23:24:48;23.45;;;14.98;;
52468;SDS011;38381;53.688;10.776;2024-01-16T23:29:49;18.63;;;14.95;;
52468;SDS011;38381;53.688;10.776;2024-01-16T23:34:49;21.85;;;16.20;;
52468;SDS011;38381;53.688;10.776;2024-01-16T23:39:56;19.05;;;17.15;;
52468;SDS011;38381;53.688;10.776;2024-01-16T23:44:57;20.13;;;16.95;;
52468;SDS011;38381;53.688;10.776;2024-01-16T23:49:57;20.33;;;16.10;;
52468;SDS011;38381;53.688;10.776;2024-01-16T23:54:57;20.58;;;16.05;;
52468;SDS011;38381;53.688;10.776;2024-01-16T23:59:58;18.58;;;15.18;;
